Inkster, Michigan
Current Conditions -  °F | °C
As of 1:46 AM on Thursday 27 Nov 2014 (Local Time) from KDTW Reporting Station
Light Snow Light Snow  
Wind Chill: -6°   Ceiling: 3500
Heat Index: -1°   Visibility: 9mi
Dew Point: -5°   Wind: 9mph
Humidity: 75%   Direction: 310°NW
Pressure: 30.09"   Gusts: NA
Location:  42.3°N, 83.31°W
Report Text: KDTW 270646Z 31008KT 9SM -SN SCT020 OVC035 M01/M05 A3009 RMK AO2 P0000
Loading
Personal Weather Stations






























Interactive Weather Map New forecast layout! Learn more

10-Day Weather Forecast

Advertisements
Track Severe Weather on mobile